sensor_id;sensor_type;location;lat;lon;timestamp;pressure;altitude;pressure_sealevel;temperature;humidity
39891;BME280;25564;53.312;9.790;2023-06-10T00:01:43;101093.06;;;14.42;75.89
39891;BME280;25564;53.312;9.790;2023-06-10T00:04:18;101113.47;;;14.45;75.87
39891;BME280;25564;53.312;9.790;2023-06-10T00:06:49;101119.75;;;14.44;76.18
39891;BME280;25564;53.312;9.790;2023-06-10T00:09:21;101117.13;;;14.40;76.34
39891;BME280;25564;53.312;9.790;2023-06-10T00:11:53;101113.72;;;14.34;76.41
39891;BME280;25564;53.312;9.790;2023-06-10T00:14:25;101111.09;;;14.32;76.68
39891;BME280;25564;53.312;9.790;2023-06-10T00:16:56;101103.31;;;14.25;76.63
39891;BME280;25564;53.312;9.790;2023-06-10T00:19:28;101120.91;;;14.32;76.94
39891;BME280;25564;53.312;9.790;2023-06-10T00:22:01;101093.75;;;14.16;76.91
39891;BME280;25564;53.312;9.790;2023-06-10T00:24:32;101118.34;;;14.27;77.13
39891;BME280;25564;53.312;9.790;2023-06-10T00:27:04;101105.09;;;14.24;77.30
39891;BME280;25564;53.312;9.790;2023-06-10T00:29:36;101117.66;;;14.21;77.39
39891;BME280;25564;53.312;9.790;2023-06-10T00:32:08;101111.66;;;14.11;77.32
39891;BME280;25564;53.312;9.790;2023-06-10T00:34:39;101117.84;;;14.13;77.59
39891;BME280;25564;53.312;9.790;2023-06-10T00:37:11;101116.13;;;14.11;77.75
39891;BME280;25564;53.312;9.790;2023-06-10T00:39:42;101126.84;;;14.09;77.85
39891;BME280;25564;53.312;9.790;2023-06-10T00:42:13;101127.84;;;14.05;77.93
39891;BME280;25564;53.312;9.790;2023-06-10T00:44:45;101097.13;;;13.89;77.75
39891;BME280;25564;53.312;9.790;2023-06-10T00:47:16;101115.63;;;13.95;78.01
39891;BME280;25564;53.312;9.790;2023-06-10T00:49:49;101121.03;;;13.92;78.08
39891;BME280;25564;53.312;9.790;2023-06-10T00:52:22;101111.53;;;13.82;78.32
39891;BME280;25564;53.312;9.790;2023-06-10T00:54:58;101110.75;;;13.77;78.14
39891;BME280;25564;53.312;9.790;2023-06-10T00:57:30;101124.00;;;13.80;78.17
39891;BME280;25564;53.312;9.790;2023-06-10T01:00:04;101118.00;;;13.71;78.42
39891;BME280;25564;53.312;9.790;2023-06-10T01:02:38;101128.66;;;13.71;78.31
39891;BME280;25564;53.312;9.790;2023-06-10T01:05:10;101128.72;;;13.68;78.42
39891;BME280;25564;53.312;9.790;2023-06-10T01:07:59;101113.88;;;13.57;78.76
39891;BME280;25564;53.312;9.790;2023-06-10T01:10:36;101122.72;;;13.59;78.60
39891;BME280;25564;53.312;9.790;2023-06-10T01:13:11;101132.59;;;13.55;78.73
39891;BME280;25564;53.312;9.790;2023-06-10T01:15:43;101116.72;;;13.51;78.63
39891;BME280;25564;53.312;9.790;2023-06-10T01:18:15;101131.09;;;13.45;78.49
39891;BME280;25564;53.312;9.790;2023-06-10T01:20:47;101133.81;;;13.42;78.00
39891;BME280;25564;53.312;9.790;2023-06-10T01:23:22;101112.06;;;13.22;78.82
39891;BME280;25564;53.312;9.790;2023-06-10T01:26:02;101103.31;;;13.14;78.53
39891;BME280;25564;53.312;9.790;2023-06-10T01:31:17;101136.00;;;13.23;79.40
39891;BME280;25564;53.312;9.790;2023-06-10T01:33:52;101121.16;;;13.10;78.86
39891;BME280;25564;53.312;9.790;2023-06-10T01:36:24;101138.84;;;13.14;79.19
39891;BME280;25564;53.312;9.790;2023-06-10T01:38:57;101130.16;;;13.04;79.39
39891;BME280;25564;53.312;9.790;2023-06-10T01:41:30;101138.16;;;13.04;79.10
39891;BME280;25564;53.312;9.790;2023-06-10T01:44:02;101122.47;;;12.91;79.08
39891;BME280;25564;53.312;9.790;2023-06-10T01:46:34;101136.56;;;12.96;79.38
39891;BME280;25564;53.312;9.790;2023-06-10T01:49:05;101122.72;;;12.78;79.02
39891;BME280;25564;53.312;9.790;2023-06-10T01:51:38;101131.47;;;12.84;79.21
39891;BME280;25564;53.312;9.790;2023-06-10T01:54:09;101125.41;;;12.77;79.01
39891;BME280;25564;53.312;9.790;2023-06-10T01:56:40;101135.94;;;12.83;79.51
39891;BME280;25564;53.312;9.790;2023-06-10T01:59:12;101148.41;;;12.81;79.51
39891;BME280;25564;53.312;9.790;2023-06-10T02:01:43;101146.69;;;12.77;79.35
39891;BME280;25564;53.312;9.790;2023-06-10T02:04:15;101147.63;;;12.76;79.61
39891;BME280;25564;53.312;9.790;2023-06-10T02:06:47;101152.97;;;12.74;79.21
39891;BME280;25564;53.312;9.790;2023-06-10T02:09:19;101153.72;;;12.81;79.66
39891;BME280;25564;53.312;9.790;2023-06-10T02:11:50;101142.09;;;12.85;79.68
39891;BME280;25564;53.312;9.790;2023-06-10T02:14:22;101135.06;;;12.83;79.51
39891;BME280;25564;53.312;9.790;2023-06-10T02:16:53;101148.22;;;12.90;79.45
39891;BME280;25564;53.312;9.790;2023-06-10T02:19:27;101155.97;;;13.02;79.33
39891;BME280;25564;53.312;9.790;2023-06-10T02:21:59;101154.94;;;13.09;79.50
39891;BME280;25564;53.312;9.790;2023-06-10T02:24:30;101160.13;;;13.16;79.25
39891;BME280;25564;53.312;9.790;2023-06-10T02:27:02;101157.38;;;13.22;79.35
39891;BME280;25564;53.312;9.790;2023-06-10T02:29:34;101163.41;;;13.30;79.27
39891;BME280;25564;53.312;9.790;2023-06-10T02:32:06;101143.97;;;13.25;79.11
39891;BME280;25564;53.312;9.790;2023-06-10T02:34:42;101167.63;;;13.40;79.35
39891;BME280;25564;53.312;9.790;2023-06-10T02:37:13;101155.28;;;13.36;78.85
39891;BME280;25564;53.312;9.790;2023-06-10T02:39:45;101167.50;;;13.46;78.96
39891;BME280;25564;53.312;9.790;2023-06-10T02:42:16;101167.44;;;13.49;78.82
39891;BME280;25564;53.312;9.790;2023-06-10T02:44:48;101171.84;;;13.50;78.92
39891;BME280;25564;53.312;9.790;2023-06-10T02:47:19;101173.59;;;13.51;78.72
39891;BME280;25564;53.312;9.790;2023-06-10T02:49:51;101156.91;;;13.43;78.79
39891;BME280;25564;53.312;9.790;2023-06-10T02:52:22;101161.22;;;13.49;78.69
39891;BME280;25564;53.312;9.790;2023-06-10T02:54:53;101172.59;;;13.55;78.84
39891;BME280;25564;53.312;9.790;2023-06-10T02:57:25;101167.22;;;13.57;78.61
39891;BME280;25564;53.312;9.790;2023-06-10T02:59:56;101171.69;;;13.56;78.97
39891;BME280;25564;53.312;9.790;2023-06-10T03:02:29;101178.78;;;13.57;78.86
39891;BME280;25564;53.312;9.790;2023-06-10T03:05:03;101168.31;;;13.50;78.75
39891;BME280;25564;53.312;9.790;2023-06-10T03:07:34;101184.06;;;13.59;78.72
39891;BME280;25564;53.312;9.790;2023-06-10T03:10:06;101162.00;;;13.52;78.57
39891;BME280;25564;53.312;9.790;2023-06-10T03:12:38;101159.25;;;13.55;78.44
39891;BME280;25564;53.312;9.790;2023-06-10T03:15:09;101164.38;;;13.64;78.42
39891;BME280;25564;53.312;9.790;2023-06-10T03:17:41;101177.53;;;13.72;78.58
39891;BME280;25564;53.312;9.790;2023-06-10T03:20:12;101178.44;;;13.72;78.27
39891;BME280;25564;53.312;9.790;2023-06-10T03:22:47;101170.50;;;13.69;78.17
39891;BME280;25564;53.312;9.790;2023-06-10T03:25:18;101190.75;;;13.78;78.11
39891;BME280;25564;53.312;9.790;2023-06-10T03:27:51;101175.69;;;13.75;78.29
39891;BME280;25564;53.312;9.790;2023-06-10T03:30:23;101168.63;;;13.73;78.15
39891;BME280;25564;53.312;9.790;2023-06-10T03:32:54;101139.75;;;13.53;78.20
39891;BME280;25564;53.312;9.790;2023-06-10T03:35:26;101154.56;;;13.66;78.12
39891;BME280;25564;53.312;9.790;2023-06-10T03:37:57;101185.16;;;13.89;77.67
39891;BME280;25564;53.312;9.790;2023-06-10T03:40:28;101186.84;;;13.93;77.95
39891;BME280;25564;53.312;9.790;2023-06-10T03:43:02;101178.00;;;13.91;77.80
39891;BME280;25564;53.312;9.790;2023-06-10T03:45:34;101149.88;;;13.76;77.86
39891;BME280;25564;53.312;9.790;2023-06-10T03:48:05;101181.47;;;13.94;77.87
39891;BME280;25564;53.312;9.790;2023-06-10T03:50:37;101192.09;;;13.96;77.60
39891;BME280;25564;53.312;9.790;2023-06-10T03:53:08;101179.50;;;14.02;77.88
39891;BME280;25564;53.312;9.790;2023-06-10T03:55:40;101175.88;;;14.05;77.47
39891;BME280;25564;53.312;9.790;2023-06-10T03:58:12;101174.81;;;14.12;77.36
39891;BME280;25564;53.312;9.790;2023-06-10T04:00:45;101184.41;;;14.19;77.40
39891;BME280;25564;53.312;9.790;2023-06-10T04:03:18;101165.69;;;14.21;77.69
39891;BME280;25564;53.312;9.790;2023-06-10T04:05:52;101184.03;;;14.34;77.28
39891;BME280;25564;53.312;9.790;2023-06-10T04:08:23;101183.06;;;14.37;76.90
39891;BME280;25564;53.312;9.790;2023-06-10T04:10:55;101173.34;;;14.34;77.14
39891;BME280;25564;53.312;9.790;2023-06-10T04:13:27;101184.75;;;14.41;76.82
39891;BME280;25564;53.312;9.790;2023-06-10T04:15:58;101167.00;;;14.38;77.01
39891;BME280;25564;53.312;9.790;2023-06-10T04:18:30;101177.56;;;14.45;76.61
39891;BME280;25564;53.312;9.790;2023-06-10T04:21:02;101149.41;;;14.31;76.36
39891;BME280;25564;53.312;9.790;2023-06-10T04:23:33;101193.91;;;14.65;76.54
39891;BME280;25564;53.312;9.790;2023-06-10T04:26:04;101173.59;;;14.59;76.33
39891;BME280;25564;53.312;9.790;2023-06-10T04:28:37;101191.00;;;14.74;76.45
39891;BME280;25564;53.312;9.790;2023-06-10T04:31:08;101188.31;;;14.74;76.33
39891;BME280;25564;53.312;9.790;2023-06-10T04:33:40;101188.31;;;14.74;76.42
39891;BME280;25564;53.312;9.790;2023-06-10T04:36:11;101188.41;;;14.71;75.94
39891;BME280;25564;53.312;9.790;2023-06-10T04:38:43;101191.09;;;14.71;75.87
39891;BME280;25564;53.312;9.790;2023-06-10T04:41:14;101189.13;;;14.78;75.93
39891;BME280;25564;53.312;9.790;2023-06-10T04:43:45;101172.28;;;14.74;75.86
39891;BME280;25564;53.312;9.790;2023-06-10T04:46:17;101189.66;;;14.90;75.77
39891;BME280;25564;53.312;9.790;2023-06-10T04:48:48;101191.19;;;14.99;75.47
39891;BME280;25564;53.312;9.790;2023-06-10T04:51:20;101196.47;;;15.02;75.12
39891;BME280;25564;53.312;9.790;2023-06-10T04:53:51;101190.03;;;15.09;75.13
39891;BME280;25564;53.312;9.790;2023-06-10T04:56:25;101195.28;;;15.12;75.12
39891;BME280;25564;53.312;9.790;2023-06-10T04:58:57;101182.63;;;15.19;74.73
39891;BME280;25564;53.312;9.790;2023-06-10T05:01:28;101194.78;;;15.29;74.70
39891;BME280;25564;53.312;9.790;2023-06-10T05:04:00;101167.59;;;15.15;74.57
39891;BME280;25564;53.312;9.790;2023-06-10T05:06:31;101194.75;;;15.30;74.43
39891;BME280;25564;53.312;9.790;2023-06-10T05:09:02;101184.19;;;15.26;74.47
39891;BME280;25564;53.312;9.790;2023-06-10T05:11:34;101198.06;;;15.38;74.51
39891;BME280;25564;53.312;9.790;2023-06-10T05:14:05;101189.19;;;15.38;74.29
39891;BME280;25564;53.312;9.790;2023-06-10T05:16:37;101175.72;;;15.41;74.24
39891;BME280;25564;53.312;9.790;2023-06-10T05:19:08;101191.31;;;15.56;73.97
39891;BME280;25564;53.312;9.790;2023-06-10T05:21:40;101190.03;;;15.68;74.29
39891;BME280;25564;53.312;9.790;2023-06-10T05:24:11;101196.09;;;15.75;74.06
39891;BME280;25564;53.312;9.790;2023-06-10T05:26:43;101205.97;;;15.73;73.53
39891;BME280;25564;53.312;9.790;2023-06-10T05:29:14;101200.38;;;15.80;73.73
39891;BME280;25564;53.312;9.790;2023-06-10T05:31:46;101193.41;;;15.75;73.49
39891;BME280;25564;53.312;9.790;2023-06-10T05:34:18;101190.00;;;15.69;73.31
39891;BME280;25564;53.312;9.790;2023-06-10T05:36:49;101203.88;;;15.82;73.47
39891;BME280;25564;53.312;9.790;2023-06-10T05:39:21;101199.41;;;15.83;73.42
39891;BME280;25564;53.312;9.790;2023-06-10T05:41:52;101196.97;;;15.75;73.00
39891;BME280;25564;53.312;9.790;2023-06-10T05:44:23;101200.38;;;15.80;73.10
39891;BME280;25564;53.312;9.790;2023-06-10T05:46:55;101196.00;;;15.78;73.20
39891;BME280;25564;53.312;9.790;2023-06-10T05:49:26;101197.44;;;15.88;72.79
39891;BME280;25564;53.312;9.790;2023-06-10T05:51:58;101193.81;;;15.90;72.73
39891;BME280;25564;53.312;9.790;2023-06-10T05:54:30;101196.88;;;16.06;72.61
39891;BME280;25564;53.312;9.790;2023-06-10T05:57:01;101161.38;;;15.99;72.46
39891;BME280;25564;53.312;9.790;2023-06-10T05:59:34;101173.69;;;16.05;72.13
39891;BME280;25564;53.312;9.790;2023-06-10T06:02:06;101194.72;;;16.17;72.25
39891;BME280;25564;53.312;9.790;2023-06-10T06:04:37;101199.34;;;16.12;72.35
39891;BME280;25564;53.312;9.790;2023-06-10T06:07:09;101180.81;;;16.06;72.09
39891;BME280;25564;53.312;9.790;2023-06-10T06:09:40;101173.97;;;16.24;72.15
39891;BME280;25564;53.312;9.790;2023-06-10T06:12:12;101180.91;;;16.56;71.66
39891;BME280;25564;53.312;9.790;2023-06-10T06:14:43;101190.75;;;16.80;71.28
39891;BME280;25564;53.312;9.790;2023-06-10T06:17:15;101201.69;;;17.24;70.71
39891;BME280;25564;53.312;9.790;2023-06-10T06:19:47;101202.03;;;17.61;70.05
39891;BME280;25564;53.312;9.790;2023-06-10T06:22:19;101205.19;;;17.73;69.52
39891;BME280;25564;53.312;9.790;2023-06-10T06:24:53;101185.75;;;17.43;69.47
39891;BME280;25564;53.312;9.790;2023-06-10T06:27:24;101211.78;;;17.41;69.77
39891;BME280;25564;53.312;9.790;2023-06-10T06:29:56;101216.84;;;17.48;69.65
39891;BME280;25564;53.312;9.790;2023-06-10T06:32:28;101204.56;;;17.66;69.54
39891;BME280;25564;53.312;9.790;2023-06-10T06:34:59;101196.59;;;18.08;69.31
39891;BME280;25564;53.312;9.790;2023-06-10T06:37:31;101208.03;;;18.55;68.37
39891;BME280;25564;53.312;9.790;2023-06-10T06:40:02;101209.06;;;18.93;67.67
39891;BME280;25564;53.312;9.790;2023-06-10T06:42:35;101202.94;;;19.49;66.34
39891;BME280;25564;53.312;9.790;2023-06-10T06:45:06;101200.50;;;19.64;65.86
39891;BME280;25564;53.312;9.790;2023-06-10T06:47:38;101207.16;;;20.65;64.81
39891;BME280;25564;53.312;9.790;2023-06-10T06:50:10;101207.91;;;21.01;63.51
39891;BME280;25564;53.312;9.790;2023-06-10T06:52:41;101211.94;;;21.27;62.69
39891;BME280;25564;53.312;9.790;2023-06-10T06:55:12;101213.78;;;20.92;62.84
39891;BME280;25564;53.312;9.790;2023-06-10T06:57:44;101197.41;;;20.79;63.83
39891;BME280;25564;53.312;9.790;2023-06-10T07:00:15;101187.00;;;20.72;63.52
39891;BME280;25564;53.312;9.790;2023-06-10T07:02:48;101208.81;;;20.50;64.46
39891;BME280;25564;53.312;9.790;2023-06-10T07:05:19;101213.72;;;20.42;64.53
39891;BME280;25564;53.312;9.790;2023-06-10T07:07:51;101214.34;;;20.47;64.84
39891;BME280;25564;53.312;9.790;2023-06-10T07:10:26;101213.16;;;20.52;64.42
39891;BME280;25564;53.312;9.790;2023-06-10T07:12:58;101209.53;;;20.35;64.38
39891;BME280;25564;53.312;9.790;2023-06-10T07:15:30;101223.06;;;20.16;64.62
39891;BME280;25564;53.312;9.790;2023-06-10T07:18:01;101219.81;;;19.90;64.62
39891;BME280;25564;53.312;9.790;2023-06-10T07:20:33;101217.19;;;19.89;65.04
39891;BME280;25564;53.312;9.790;2023-06-10T07:23:04;101213.56;;;19.90;64.42
39891;BME280;25564;53.312;9.790;2023-06-10T07:25:35;101222.06;;;19.81;64.18
39891;BME280;25564;53.312;9.790;2023-06-10T07:28:07;101201.63;;;19.77;64.43
39891;BME280;25564;53.312;9.790;2023-06-10T07:30:38;101207.34;;;19.71;63.82
39891;BME280;25564;53.312;9.790;2023-06-10T07:33:10;101220.31;;;19.80;63.75
39891;BME280;25564;53.312;9.790;2023-06-10T07:35:42;101212.41;;;19.77;64.30
39891;BME280;25564;53.312;9.790;2023-06-10T07:38:14;101194.41;;;19.77;64.45
39891;BME280;25564;53.312;9.790;2023-06-10T07:40:45;101212.97;;;20.02;63.70
39891;BME280;25564;53.312;9.790;2023-06-10T07:43:17;101208.56;;;20.18;63.54
39891;BME280;25564;53.312;9.790;2023-06-10T07:45:48;101202.41;;;20.34;63.54
39891;BME280;25564;53.312;9.790;2023-06-10T07:48:20;101211.66;;;20.47;63.08
39891;BME280;25564;53.312;9.790;2023-06-10T07:50:52;101205.81;;;20.73;62.46
39891;BME280;25564;53.312;9.790;2023-06-10T07:53:23;101200.97;;;20.80;62.84
39891;BME280;25564;53.312;9.790;2023-06-10T07:55:55;101205.69;;;20.92;62.65
39891;BME280;25564;53.312;9.790;2023-06-10T07:58:26;101213.88;;;20.90;61.95
39891;BME280;25564;53.312;9.790;2023-06-10T08:00:58;101208.78;;;20.84;61.86
39891;BME280;25564;53.312;9.790;2023-06-10T08:03:29;101211.16;;;21.08;61.68
39891;BME280;25564;53.312;9.790;2023-06-10T08:06:01;101218.66;;;21.18;61.17
39891;BME280;25564;53.312;9.790;2023-06-10T08:08:32;101190.75;;;21.02;61.30
39891;BME280;25564;53.312;9.790;2023-06-10T08:11:04;101215.44;;;21.29;61.11
39891;BME280;25564;53.312;9.790;2023-06-10T08:13:36;101217.63;;;21.38;60.65
39891;BME280;25564;53.312;9.790;2023-06-10T08:16:08;101216.34;;;21.45;60.63
39891;BME280;25564;53.312;9.790;2023-06-10T08:18:40;101206.06;;;21.52;59.94
39891;BME280;25564;53.312;9.790;2023-06-10T08:21:11;101217.59;;;21.71;59.95
39891;BME280;25564;53.312;9.790;2023-06-10T08:23:43;101210.97;;;21.93;59.53
39891;BME280;25564;53.312;9.790;2023-06-10T08:26:15;101215.88;;;22.17;59.04
39891;BME280;25564;53.312;9.790;2023-06-10T08:28:46;101201.91;;;22.25;58.91
39891;BME280;25564;53.312;9.790;2023-06-10T08:31:18;101206.25;;;22.28;57.30
39891;BME280;25564;53.312;9.790;2023-06-10T08:33:49;101207.72;;;22.33;57.94
39891;BME280;25564;53.312;9.790;2023-06-10T08:36:20;101214.47;;;22.26;57.73
39891;BME280;25564;53.312;9.790;2023-06-10T08:38:52;101202.34;;;22.17;57.91
39891;BME280;25564;53.312;9.790;2023-06-10T08:41:23;101200.66;;;22.31;57.40
39891;BME280;25564;53.312;9.790;2023-06-10T08:44:17;101199.09;;;22.27;57.26
39891;BME280;25564;53.312;9.790;2023-06-10T08:46:52;101200.06;;;22.26;57.63
39891;BME280;25564;53.312;9.790;2023-06-10T08:49:26;101206.88;;;22.33;57.56
39891;BME280;25564;53.312;9.790;2023-06-10T08:51:59;101200.50;;;22.34;57.50
39891;BME280;25564;53.312;9.790;2023-06-10T08:54:32;101187.84;;;22.64;56.98
39891;BME280;25564;53.312;9.790;2023-06-10T08:57:06;101208.00;;;22.89;56.38
39891;BME280;25564;53.312;9.790;2023-06-10T08:59:38;101206.88;;;22.93;56.43
39891;BME280;25564;53.312;9.790;2023-06-10T09:02:09;101201.28;;;23.10;56.28
39891;BME280;25564;53.312;9.790;2023-06-10T09:04:42;101205.56;;;23.42;55.91
39891;BME280;25564;53.312;9.790;2023-06-10T09:07:17;101193.75;;;23.43;55.23
39891;BME280;25564;53.312;9.790;2023-06-10T09:09:49;101198.78;;;23.49;55.11
39891;BME280;25564;53.312;9.790;2023-06-10T09:12:20;101209.53;;;23.65;55.17
39891;BME280;25564;53.312;9.790;2023-06-10T09:14:52;101200.84;;;23.60;54.66
39891;BME280;25564;53.312;9.790;2023-06-10T09:17:23;101196.09;;;23.64;54.55
39891;BME280;25564;53.312;9.790;2023-06-10T09:19:55;101203.94;;;23.68;54.09
39891;BME280;25564;53.312;9.790;2023-06-10T09:22:28;101195.00;;;23.52;53.87
39891;BME280;25564;53.312;9.790;2023-06-10T09:27:49;101179.81;;;23.49;53.60
39891;BME280;25564;53.312;9.790;2023-06-10T09:30:27;101187.47;;;23.71;53.26
39891;BME280;25564;53.312;9.790;2023-06-10T09:33:02;101188.16;;;23.75;52.93
39891;BME280;25564;53.312;9.790;2023-06-10T09:35:34;101189.59;;;23.80;52.58
39891;BME280;25564;53.312;9.790;2023-06-10T09:38:05;101163.44;;;23.79;53.12
39891;BME280;25564;53.312;9.790;2023-06-10T09:40:51;101178.03;;;23.91;52.63
39891;BME280;25564;53.312;9.790;2023-06-10T09:43:22;101184.19;;;23.93;52.24
39891;BME280;25564;53.312;9.790;2023-06-10T09:45:55;101165.28;;;24.06;52.20
39891;BME280;25564;53.312;9.790;2023-06-10T09:48:28;101179.44;;;24.24;52.65
39891;BME280;25564;53.312;9.790;2023-06-10T09:50:59;101187.66;;;24.36;52.18
39891;BME280;25564;53.312;9.790;2023-06-10T09:53:33;101178.44;;;24.39;51.80
39891;BME280;25564;53.312;9.790;2023-06-10T09:56:05;101166.00;;;24.49;51.32
39891;BME280;25564;53.312;9.790;2023-06-10T09:58:40;101179.72;;;24.73;51.04
39891;BME280;25564;53.312;9.790;2023-06-10T10:01:14;101178.84;;;24.72;50.73
39891;BME280;25564;53.312;9.790;2023-06-10T10:03:47;101174.41;;;24.71;50.25
39891;BME280;25564;53.312;9.790;2023-06-10T10:06:20;101180.38;;;24.76;50.10
39891;BME280;25564;53.312;9.790;2023-06-10T10:08:52;101182.03;;;24.92;50.46
39891;BME280;25564;53.312;9.790;2023-06-10T10:11:23;101177.03;;;25.11;49.81
39891;BME280;25564;53.312;9.790;2023-06-10T10:13:57;101182.03;;;25.30;49.21
39891;BME280;25564;53.312;9.790;2023-06-10T10:16:40;101172.25;;;25.27;49.29
39891;BME280;25564;53.312;9.790;2023-06-10T10:19:19;101171.06;;;25.31;48.31
39891;BME280;25564;53.312;9.790;2023-06-10T10:21:58;101181.25;;;25.40;48.22
39891;BME280;25564;53.312;9.790;2023-06-10T10:24:34;101181.78;;;25.58;48.30
39891;BME280;25564;53.312;9.790;2023-06-10T10:27:17;101166.75;;;25.78;48.30
39891;BME280;25564;53.312;9.790;2023-06-10T10:29:52;101174.75;;;25.92;48.03
39891;BME280;25564;53.312;9.790;2023-06-10T10:32:38;101173.19;;;26.01;47.74
39891;BME280;25564;53.312;9.790;2023-06-10T10:35:19;101181.75;;;26.07;48.12
39891;BME280;25564;53.312;9.790;2023-06-10T10:37:54;101161.38;;;26.13;47.66
39891;BME280;25564;53.312;9.790;2023-06-10T10:40:27;101171.78;;;26.32;47.10
39891;BME280;25564;53.312;9.790;2023-06-10T10:43:01;101174.53;;;26.43;47.27
39891;BME280;25564;53.312;9.790;2023-06-10T10:45:34;101177.19;;;26.56;47.03
39891;BME280;25564;53.312;9.790;2023-06-10T10:48:08;101172.63;;;26.56;46.41
39891;BME280;25564;53.312;9.790;2023-06-10T10:50:43;101172.88;;;26.64;46.66
39891;BME280;25564;53.312;9.790;2023-06-10T10:53:19;101153.63;;;26.79;46.67
39891;BME280;25564;53.312;9.790;2023-06-10T10:56:20;101168.53;;;27.08;45.71
39891;BME280;25564;53.312;9.790;2023-06-10T10:59:05;101155.84;;;26.85;45.92
39891;BME280;25564;53.312;9.790;2023-06-10T11:01:41;101158.34;;;26.88;45.94
39891;BME280;25564;53.312;9.790;2023-06-10T11:04:17;101158.34;;;26.88;45.49
39891;BME280;25564;53.312;9.790;2023-06-10T11:06:53;101163.28;;;26.83;45.68
39891;BME280;25564;53.312;9.790;2023-06-10T11:09:28;101167.13;;;26.91;45.49
39891;BME280;25564;53.312;9.790;2023-06-10T11:12:00;101165.13;;;26.82;45.65
39891;BME280;25564;53.312;9.790;2023-06-10T11:14:31;101171.47;;;26.94;46.12
39891;BME280;25564;53.312;9.790;2023-06-10T11:17:18;101164.69;;;27.11;45.18
39891;BME280;25564;53.312;9.790;2023-06-10T11:19:49;101148.22;;;27.23;45.04
39891;BME280;25564;53.312;9.790;2023-06-10T11:22:21;101158.25;;;27.56;44.64
39891;BME280;25564;53.312;9.790;2023-06-10T11:24:52;101152.31;;;27.85;44.24
39891;BME280;25564;53.312;9.790;2023-06-10T11:27:24;101166.78;;;27.96;43.71
39891;BME280;25564;53.312;9.790;2023-06-10T11:32:37;101144.00;;;27.75;43.87
39891;BME280;25564;53.312;9.790;2023-06-10T11:35:08;101138.91;;;27.82;43.37
39891;BME280;25564;53.312;9.790;2023-06-10T11:37:40;101140.13;;;27.89;43.63
39891;BME280;25564;53.312;9.790;2023-06-10T11:40:12;101142.31;;;28.06;43.05
39891;BME280;25564;53.312;9.790;2023-06-10T11:42:43;101143.09;;;28.29;42.90
39891;BME280;25564;53.312;9.790;2023-06-10T11:45:16;101140.84;;;28.34;42.46
39891;BME280;25564;53.312;9.790;2023-06-10T11:48:00;101152.38;;;28.38;43.00
39891;BME280;25564;53.312;9.790;2023-06-10T11:50:33;101143.28;;;28.48;42.69
39891;BME280;25564;53.312;9.790;2023-06-10T11:53:04;101134.81;;;28.51;42.75
39891;BME280;25564;53.312;9.790;2023-06-10T11:55:46;101145.53;;;28.64;42.47
39891;BME280;25564;53.312;9.790;2023-06-10T11:58:19;101152.34;;;28.70;42.25
39891;BME280;25564;53.312;9.790;2023-06-10T12:00:51;101146.81;;;28.60;42.33
39891;BME280;25564;53.312;9.790;2023-06-10T12:03:24;101128.75;;;28.48;43.10
39891;BME280;25564;53.312;9.790;2023-06-10T12:05:58;101144.13;;;28.49;42.98
39891;BME280;25564;53.312;9.790;2023-06-10T12:08:30;101140.06;;;28.43;43.02
39891;BME280;25564;53.312;9.790;2023-06-10T12:11:07;101141.06;;;28.42;43.14
39891;BME280;25564;53.312;9.790;2023-06-10T12:13:45;101137.72;;;28.39;43.05
39891;BME280;25564;53.312;9.790;2023-06-10T12:16:19;101126.19;;;28.35;43.17
39891;BME280;25564;53.312;9.790;2023-06-10T12:18:51;101140.00;;;28.54;43.32
39891;BME280;25564;53.312;9.790;2023-06-10T12:21:25;101136.34;;;28.65;43.64
39891;BME280;25564;53.312;9.790;2023-06-10T12:24:05;101131.97;;;28.94;43.17
39891;BME280;25564;53.312;9.790;2023-06-10T12:26:44;101136.88;;;29.31;42.92
39891;BME280;25564;53.312;9.790;2023-06-10T12:29:23;101124.47;;;29.27;42.50
39891;BME280;25564;53.312;9.790;2023-06-10T12:34:38;101119.41;;;29.43;42.71
39891;BME280;25564;53.312;9.790;2023-06-10T12:37:13;101119.25;;;29.45;42.08
39891;BME280;25564;53.312;9.790;2023-06-10T12:39:51;101116.13;;;29.59;42.77
39891;BME280;25564;53.312;9.790;2023-06-10T12:42:24;101104.47;;;29.57;42.04
39891;BME280;25564;53.312;9.790;2023-06-10T12:44:56;101103.63;;;29.66;41.80
39891;BME280;25564;53.312;9.790;2023-06-10T12:47:35;101101.47;;;29.70;41.42
39891;BME280;25564;53.312;9.790;2023-06-10T12:50:08;101089.50;;;29.61;42.24
39891;BME280;25564;53.312;9.790;2023-06-10T12:52:40;101107.38;;;29.65;42.44
39891;BME280;25564;53.312;9.790;2023-06-10T12:55:12;101093.56;;;29.76;41.95
39891;BME280;25564;53.312;9.790;2023-06-10T12:57:48;101091.28;;;29.81;41.06
39891;BME280;25564;53.312;9.790;2023-06-10T13:00:20;101091.00;;;29.84;41.01
39891;BME280;25564;53.312;9.790;2023-06-10T13:02:52;101084.38;;;29.97;41.08
39891;BME280;25564;53.312;9.790;2023-06-10T13:05:26;101089.03;;;30.15;40.64
39891;BME280;25564;53.312;9.790;2023-06-10T13:07:59;101085.09;;;30.27;40.47
39891;BME280;25564;53.312;9.790;2023-06-10T13:10:30;101092.00;;;30.32;40.58
39891;BME280;25564;53.312;9.790;2023-06-10T13:13:02;101106.41;;;30.53;40.79
39891;BME280;25564;53.312;9.790;2023-06-10T13:15:36;101094.47;;;30.25;40.17
39891;BME280;25564;53.312;9.790;2023-06-10T13:18:13;101091.31;;;30.20;41.04
39891;BME280;25564;53.312;9.790;2023-06-10T13:20:45;101084.72;;;30.13;40.60
39891;BME280;25564;53.312;9.790;2023-06-10T13:23:16;101083.69;;;30.14;40.87
39891;BME280;25564;53.312;9.790;2023-06-10T13:25:47;101082.25;;;30.10;40.52
39891;BME280;25564;53.312;9.790;2023-06-10T13:28:19;101073.47;;;30.16;39.67
39891;BME280;25564;53.312;9.790;2023-06-10T13:30:51;101069.81;;;30.25;40.07